Time;durP1;ratioP1;P1;durP2;ratioP2;P2;SDS_P1;SDS_P2;PMS_P1;PMS_P2;Temp;Humidity;BMP_temperature;BMP_pressure;BME280_temperature;BME280_humidity;BME280_pressure;Samples;Min_cycle;Max_cycle;Signal;HPM_P1;HPM_P2
2022/04/14 12:18:40;;;;;;;5.25;2.10;;;;;;;18.98;22.43;99816.06;5138105;27;20375;-91
2022/04/14 12:21:06;;;;;;;7.93;2.38;;;;;;;19.07;23.04;99821.56;5060311;28;20422;-92
2022/04/14 12:25:46;;;;;;;6.35;2.42;;;;;;;19.05;22.95;99821.06;4958250;27;5075639;-95
2022/04/14 12:28:12;;;;;;;2.63;1.70;;;;;;;18.83;22.81;99814.53;5045823;28;20515;-96
2022/04/14 12:30:41;;;;;;;3.97;2.20;;;;;;;18.88;23.08;99832.69;5035148;28;20044;-95
2022/04/14 12:33:07;;;;;;;4.93;2.20;;;;;;;18.70;22.64;99797.13;5024657;28;20495;-94
2022/04/14 12:35:43;;;;;;;3.67;2.47;;;;;;;18.69;22.44;99800.94;5013153;28;20099;-94
2022/04/14 12:41:06;;;;;;;4.88;2.05;;;;;;;18.76;23.52;99814.97;5056777;27;2382635;-95
2022/04/14 12:43:47;;;;;;;4.65;2.17;;;;;;;18.81;23.48;99805.06;5084953;28;20032;-96
2022/04/14 12:46:30;;;;;;;6.63;2.33;;;;;;;18.86;23.25;99807.66;5069388;28;20024;-94
2022/04/14 12:49:02;;;;;;;3.80;2.05;;;;;;;18.85;22.79;99792.41;5062363;28;20024;-89
2022/04/14 12:51:36;;;;;;;10.82;2.90;;;;;;;18.90;23.19;99797.72;5103599;28;20027;-93
2022/04/14 12:54:03;;;;;;;2.90;2.20;;;;;;;18.84;23.37;99805.22;5062682;28;20024;-90
2022/04/14 12:56:29;;;;;;;6.22;2.25;;;;;;;18.81;23.48;99797.69;5079547;28;20058;-91
2022/04/14 12:59:12;;;;;;;11.07;3.42;;;;;;;18.89;23.26;99813.28;5069654;28;20008;-91
2022/04/14 13:03:13;;;;;;;6.43;2.40;;;;;;;19.12;23.14;99824.97;5086000;27;1470625;-96
2022/04/14 13:05:40;;;;;;;4.70;2.08;;;;;;;19.09;23.16;99813.84;5068826;28;20028;-93
2022/04/14 13:08:12;;;;;;;6.35;2.38;;;;;;;19.01;22.84;99793.63;5066731;28;20035;-91
2022/04/14 13:10:45;;;;;;;20.50;13.00;;;;;;;19.24;22.96;99813.47;5064271;28;20008;-90
2022/04/14 13:13:28;;;;;;;6.03;2.45;;;;;;;19.11;22.61;99801.53;5064016;28;20161;-91
2022/04/14 13:15:58;;;;;;;4.22;2.20;;;;;;;19.22;22.94;99799.31;5063585;28;20020;-90
2022/04/14 13:21:25;;;;;;;4.13;1.95;;;;;;;19.27;22.72;99814.75;5116700;27;20379;-94
2022/04/14 13:23:50;;;;;;;4.03;2.30;;;;;;;19.33;22.70;99824.41;5049409;28;20051;-91
2022/04/14 13:26:16;;;;;;;4.68;2.38;;;;;;;19.27;22.47;99790.16;5042123;28;20024;-91
2022/04/14 13:28:42;;;;;;;3.40;2.30;;;;;;;19.32;22.48;99773.63;5036683;28;20062;-96
2022/04/14 13:31:13;;;;;;;5.50;2.25;;;;;;;19.67;22.36;99811.97;5046007;28;20028;-93
2022/04/14 13:33:41;;;;;;;3.88;2.00;;;;;;;19.48;22.27;99791.19;5045498;28;20055;-93
2022/04/14 13:36:16;;;;;;;5.40;1.98;;;;;;;19.57;22.21;99792.03;5054136;28;20029;-90
2022/04/14 13:38:48;;;;;;;8.63;1.85;;;;;;;19.69;22.15;99788.66;5058548;28;20025;-93
2022/04/14 13:41:19;;;;;;;17.77;2.72;;;;;;;19.61;22.76;99769.53;5060616;28;20032;-95
2022/04/14 13:43:57;;;;;;;4.55;1.90;;;;;;;19.85;21.58;99777.31;5072008;28;20109;-94
2022/04/14 13:46:24;;;;;;;3.65;2.05;;;;;;;20.08;22.00;99802.56;5068333;28;20036;-94
2022/04/14 13:48:52;;;;;;;6.68;1.83;;;;;;;20.02;21.72;99790.97;5069442;28;20040;-96
2022/04/14 13:51:24;;;;;;;3.28;2.10;;;;;;;19.91;21.23;99771.34;5048120;28;20028;-95
2022/04/14 13:53:50;;;;;;;;;;;;;;;20.22;21.59;99808.66;5054500;28;20035;-94
2022/04/14 13:56:16;;;;;;;5.45;2.00;;;;;;;20.17;21.49;99803.34;5064739;28;19954;-93
2022/04/14 13:58:43;;;;;;;3.65;1.80;;;;;;;20.07;22.06;99809.16;5048247;28;20025;-94
2022/04/14 14:01:14;;;;;;;5.43;2.78;;;;;;;19.99;21.60;99776.03;5070228;28;20108;-95
2022/04/14 14:03:39;;;;;;;6.85;1.63;;;;;;;20.02;21.90;99787.44;5062361;28;20054;-95
2022/04/14 14:06:05;;;;;;;7.15;1.90;;;;;;;20.22;21.33;99786.00;5041809;28;20181;-93
2022/04/14 14:08:31;;;;;;;5.93;2.80;;;;;;;20.23;21.51;99784.84;5046355;28;20024;-93
2022/04/14 14:10:56;;;;;;;6.28;2.22;;;;;;;20.11;21.55;99782.78;5059005;28;20097;-93
2022/04/14 14:13:25;;;;;;;6.97;2.03;;;;;;;20.12;21.60;99776.19;5044801;28;20027;-95
2022/04/14 14:16:08;;;;;;;4.13;2.15;;;;;;;20.30;21.69;99776.97;5048762;28;20031;-96
2022/04/14 14:18:33;;;;;;;2.92;1.48;;;;;;;20.51;21.20;99779.84;5024464;28;20128;-96
2022/04/14 14:21:00;;;;;;;5.32;2.40;;;;;;;20.85;21.20;99792.66;5006914;28;20121;-94
2022/04/14 14:23:25;;;;;;;5.70;2.70;;;;;;;20.89;21.14;99768.16;5003660;28;20045;-94
2022/04/14 14:25:51;;;;;;;5.65;1.95;;;;;;;21.01;20.36;99784.72;4987082;28;20100;-93
2022/04/14 14:28:19;;;;;;;3.70;1.83;;;;;;;21.05;20.42;99763.75;4999656;28;20030;-93
2022/04/14 14:30:46;;;;;;;9.30;2.20;;;;;;;21.35;20.26;99782.94;4996664;28;20022;-94
2022/04/14 14:33:14;;;;;;;5.95;1.95;;;;;;;21.29;20.26;99773.31;4987090;28;20034;-93
2022/04/14 14:35:50;;;;;;;18.63;3.78;;;;;;;21.28;20.75;99761.56;4986003;28;20006;-93
2022/04/14 14:38:20;;;;;;;7.43;2.22;;;;;;;21.10;20.75;99777.25;4987281;28;20038;-94
2022/04/14 14:40:46;;;;;;;3.03;1.70;;;;;;;20.83;21.23;99789.44;5000315;28;20022;-94
2022/04/14 14:43:12;;;;;;;3.63;2.00;;;;;;;20.69;21.46;99778.72;4984788;28;20041;-95
2022/04/14 14:45:39;;;;;;;3.05;1.70;;;;;;;20.69;21.52;99772.41;4986983;28;20429;-94
2022/04/14 14:48:09;;;;;;;3.92;1.60;;;;;;;20.45;21.47;99764.72;4989286;28;20010;-93
2022/04/14 14:50:37;;;;;;;5.50;2.72;;;;;;;20.30;21.24;99749.63;4993086;28;20027;-89
2022/04/14 14:53:05;;;;;;;12.93;4.63;;;;;;;20.69;20.73;99786.91;4992122;28;20022;-90
2022/04/14 14:55:30;;;;;;;7.00;3.15;;;;;;;20.75;20.97;99763.72;5007996;28;20021;-91
2022/04/14 15:00:43;;;;;;;5.47;1.88;;;;;;;20.92;21.47;99764.78;5033842;28;20509;-92
2022/04/14 15:03:11;;;;;;;2.50;1.50;;;;;;;20.90;21.17;99761.59;5012522;28;20021;-92
2022/04/14 15:05:43;;;;;;;7.18;2.00;;;;;;;20.83;21.15;99778.47;5024209;28;20066;-91
2022/04/14 15:08:08;;;;;;;;;;;;;;;20.58;21.21;99805.59;5040894;28;20100;-90
2022/04/14 15:10:37;;;;;;;4.47;1.92;;;;;;;20.32;22.30;99781.00;5040805;28;19943;-94
2022/04/14 15:13:04;;;;;;;4.40;2.05;;;;;;;19.99;22.54;99773.28;5040235;28;20025;-90
2022/04/14 15:15:30;;;;;;;7.43;2.10;;;;;;;20.05;22.73;99779.41;5039657;28;20020;-91
2022/04/14 15:18:04;;;;;;;4.60;2.45;;;;;;;20.09;22.82;99790.50;5057520;28;20113;-92
2022/04/14 15:20:30;;;;;;;14.52;2.72;;;;;;;19.94;22.74;99783.56;5039175;28;20045;-91
2022/04/14 15:23:05;;;;;;;4.90;2.00;;;;;;;19.80;23.02;99775.53;5057369;28;20073;-90
2022/04/14 15:25:34;;;;;;;6.38;2.20;;;;;;;19.73;22.97;99773.25;5038719;28;20035;-91
2022/04/14 15:28:02;;;;;;;5.63;1.95;;;;;;;19.74;23.10;99777.63;5040348;28;20025;-91
2022/04/14 15:30:28;;;;;;;3.28;1.88;;;;;;;19.71;23.14;99782.91;5038966;28;20013;-90
2022/04/14 15:32:56;;;;;;;2.95;1.80;;;;;;;19.67;23.65;99784.63;5021616;28;20135;-90
2022/04/14 15:35:27;;;;;;;7.43;2.00;;;;;;;19.55;24.09;99782.56;5055039;28;20021;-90
2022/04/14 15:37:53;;;;;;;3.35;1.80;;;;;;;19.36;24.00;99780.91;5038599;28;20025;-90
2022/04/14 15:40:19;;;;;;;5.68;2.08;;;;;;;19.21;24.26;99769.59;5001553;28;20041;-89
2022/04/14 15:42:44;;;;;;;4.55;2.38;;;;;;;19.30;24.17;99790.34;5020033;28;20044;-91
2022/04/14 15:45:14;;;;;;;9.15;2.08;;;;;;;19.26;24.30;99796.75;5024201;28;20036;-91
2022/04/14 15:47:39;;;;;;;8.02;2.72;;;;;;;19.26;24.56;99800.28;5046552;28;20033;-90
2022/04/14 15:50:05;;;;;;;5.45;2.47;;;;;;;19.00;24.59;99772.09;5001990;28;20108;-89
2022/04/14 15:52:31;;;;;;;4.88;2.30;;;;;;;18.98;24.89;99792.28;5000789;28;20075;-90
2022/04/14 15:54:56;;;;;;;3.75;2.00;;;;;;;18.92;25.00;99784.56;5021297;28;20024;-90
2022/04/14 15:57:22;;;;;;;4.68;1.85;;;;;;;18.82;25.30;99790.28;5022448;28;20020;-93
2022/04/14 15:59:48;;;;;;;8.30;2.10;;;;;;;18.72;25.23;99775.00;5004922;28;20115;-91
2022/04/14 16:02:14;;;;;;;6.60;2.22;;;;;;;18.77;25.25;99793.94;5022526;28;20089;-93
2022/04/14 16:04:40;;;;;;;3.45;2.22;;;;;;;18.70;25.53;99796.31;5016152;28;20021;-90
2022/04/14 16:07:06;;;;;;;4.10;2.00;;;;;;;18.61;25.64;99785.34;5038886;28;20111;-90
2022/04/14 16:12:02;;;;;;;7.53;3.30;;;;;;;18.58;25.96;99799.59;5032332;28;20479;-90
2022/04/14 16:12:17;;;;;;;3.65;2.28;;;;;;;18.46;25.75;99783.00;5022088;28;20100;-92
2022/04/14 16:14:42;;;;;;;7.82;2.38;;;;;;;18.56;25.97;99794.47;5020043;28;20030;-89
2022/04/14 16:17:08;;;;;;;14.73;4.78;;;;;;;18.45;26.31;99786.84;5045662;28;20028;-89
2022/04/14 16:19:36;;;;;;;6.57;3.30;;;;;;;18.35;26.62;99791.44;5044991;28;20039;-89
2022/04/14 16:22:01;;;;;;;10.27;4.60;;;;;;;18.22;26.30;99788.75;5042854;28;20596;-89
2022/04/14 16:24:27;;;;;;;12.75;5.38;;;;;;;18.06;26.60;99785.59;5059107;28;20066;-90
2022/04/14 16:26:52;;;;;;;5.72;3.53;;;;;;;18.07;26.49;99796.19;5024730;28;20457;-88
2022/04/14 16:29:18;;;;;;;7.50;3.95;;;;;;;17.91;26.79;99801.19;5018433;28;20043;-88
2022/04/14 16:31:44;;;;;;;7.63;2.80;;;;;;;17.94;26.58;99786.94;5014783;28;20020;-87
2022/04/14 16:34:10;;;;;;;5.43;2.53;;;;;;;17.82;26.96;99797.53;5054745;28;20028;-88
2022/04/14 16:36:36;;;;;;;3.15;2.05;;;;;;;17.79;27.14;99811.78;5022174;28;20082;-88
2022/04/14 16:39:02;;;;;;;6.10;2.25;;;;;;;17.66;26.68;99798.97;5038881;28;20115;-90
2022/04/14 16:41:28;;;;;;;5.70;2.42;;;;;;;17.68;27.08;99803.03;5039558;28;20039;-91
2022/04/14 16:43:55;;;;;;;3.95;2.00;;;;;;;17.67;27.02;99816.94;5055948;28;20029;-88
2022/04/14 16:46:20;;;;;;;5.00;2.08;;;;;;;17.56;27.15;99817.16;5055573;28;20020;-88
2022/04/14 16:48:46;;;;;;;2.97;1.95;;;;;;;17.58;27.40;99814.94;5056551;28;20025;-88
2022/04/14 16:51:12;;;;;;;3.92;2.20;;;;;;;17.45;27.62;99818.47;5040246;28;20090;-88
2022/04/14 16:53:38;;;;;;;5.50;2.50;;;;;;;17.43;27.57;99823.44;5039015;28;20036;-88
2022/04/14 16:56:04;;;;;;;7.55;2.78;;;;;;;17.36;27.65;99815.63;5038610;28;20082;-87
2022/04/14 16:58:30;;;;;;;19.20;7.53;;;;;;;17.36;28.68;99818.38;5038776;28;20024;-87
2022/04/14 17:00:55;;;;;;;12.00;4.18;;;;;;;17.29;28.29;99819.91;5037248;28;20094;-87
2022/04/14 17:03:21;;;;;;;22.35;5.60;;;;;;;17.15;30.10;99825.31;5039071;28;20033;-88
2022/04/14 17:05:46;;;;;;;17.92;4.63;;;;;;;16.99;30.09;99829.44;5055690;28;20501;-90
2022/04/14 17:08:12;;;;;;;17.23;5.72;;;;;;;16.89;30.47;99831.22;5022484;28;20032;-87
2022/04/14 17:10:37;;;;;;;10.65;4.70;;;;;;;16.85;31.22;99822.06;5023246;28;20055;-88
2022/04/14 17:13:06;;;;;;;36.30;5.65;;;;;;;16.81;31.35;99837.38;5038516;28;20059;-89
2022/04/14 17:15:31;;;;;;;28.52;6.05;;;;;;;16.73;31.76;99835.28;5039725;28;20016;-88
2022/04/14 17:17:57;;;;;;;24.67;5.68;;;;;;;16.57;31.45;99838.25;5022395;28;20083;-88
2022/04/14 17:20:23;;;;;;;16.25;5.38;;;;;;;16.42;31.69;99843.13;5022489;28;20048;-88
2022/04/14 17:25:32;;;;;;;15.88;3.97;;;;;;;16.29;32.02;99848.22;5044349;28;20426;-87
2022/04/14 17:27:58;;;;;;;15.02;4.50;;;;;;;16.27;32.56;99855.84;5021926;28;20021;-88
2022/04/14 17:30:23;;;;;;;20.27;5.15;;;;;;;16.15;32.82;99852.78;5037259;28;20078;-89
2022/04/14 17:32:49;;;;;;;15.45;4.78;;;;;;;16.14;33.35;99854.69;5035467;28;20490;-89
2022/04/14 17:35:14;;;;;;;21.17;5.38;;;;;;;16.03;34.27;99863.25;5019238;28;20024;-88
2022/04/14 17:37:40;;;;;;;14.68;5.32;;;;;;;15.98;34.22;99866.88;5018378;28;20402;-90
2022/04/14 17:40:06;;;;;;;16.77;6.15;;;;;;;15.93;34.07;99861.47;5036765;28;20120;-91
2022/04/14 17:42:34;;;;;;;16.88;5.75;;;;;;;15.85;33.97;99864.84;5039604;28;20024;-93
2022/04/14 17:44:59;;;;;;;13.27;6.03;;;;;;;15.78;34.47;99861.69;5023599;28;20403;-92
2022/04/14 17:47:25;;;;;;;25.88;7.20;;;;;;;15.75;34.97;99879.38;5020467;28;20040;-93
2022/04/14 17:49:50;;;;;;;15.25;5.63;;;;;;;15.60;35.00;99868.66;5020258;28;20102;-92
2022/04/14 17:52:16;;;;;;;17.05;7.43;;;;;;;15.35;35.83;99875.97;5022590;28;20028;-92
2022/04/14 17:54:42;;;;;;;15.23;8.00;;;;;;;15.28;35.93;99870.91;5039461;28;20025;-91
2022/04/14 17:57:07;;;;;;;18.55;8.90;;;;;;;15.20;36.52;99876.94;5023623;28;20035;-93
2022/04/14 17:59:34;;;;;;;24.33;9.02;;;;;;;15.18;37.01;99883.75;5022685;28;20024;-94
2022/04/14 18:01:59;;;;;;;17.88;7.05;;;;;;;15.16;36.03;99875.91;5031296;28;20029;-91
2022/04/14 18:04:25;;;;;;;17.48;6.50;;;;;;;15.12;35.90;99866.72;5019529;28;20032;-93
2022/04/14 18:06:50;;;;;;;16.98;7.40;;;;;;;15.14;36.11;99878.09;5020374;28;20118;-94
2022/04/14 18:09:16;;;;;;;19.80;7.20;;;;;;;15.05;36.33;99872.50;5022013;28;20025;-92
2022/04/14 18:11:41;;;;;;;27.50;12.73;;;;;;;14.95;37.89;99881.53;5022186;28;20560;-93
2022/04/14 18:14:07;;;;;;;22.67;10.77;;;;;;;14.89;38.29;99882.66;5022993;28;20510;-91
2022/04/14 18:16:32;;;;;;;19.40;9.55;;;;;;;14.80;37.89;99864.59;5023077;28;20029;-93
2022/04/14 18:18:58;;;;;;;28.02;10.05;;;;;;;14.80;38.11;99876.25;5022286;28;20025;-93
2022/04/14 18:21:24;;;;;;;23.95;8.55;;;;;;;14.66;38.65;99870.66;5021797;28;20036;-93
2022/04/14 18:23:49;;;;;;;27.70;8.68;;;;;;;14.68;38.26;99867.66;5022076;28;20440;-93
2022/04/14 18:26:15;;;;;;;41.67;15.65;;;;;;;14.60;39.17;99890.75;5022004;28;20025;-92
2022/04/14 18:28:40;;;;;;;36.70;14.48;;;;;;;14.42;40.25;99877.84;5022065;28;20017;-93
2022/04/14 18:31:07;;;;;;;29.58;10.50;;;;;;;14.44;40.41;99883.78;5022238;28;20028;-93
2022/04/14 18:33:33;;;;;;;25.13;8.88;;;;;;;14.28;40.47;99877.69;5023105;28;20025;-94
2022/04/14 18:35:58;;;;;;;20.75;8.68;;;;;;;14.26;40.40;99875.25;5022755;28;20032;-93
2022/04/14 18:38:24;;;;;;;36.00;10.93;;;;;;;14.33;40.90;99889.28;5022886;28;20115;-93
2022/04/14 18:40:49;;;;;;;24.38;13.32;;;;;;;14.31;40.71;99883.31;5022114;28;20060;-93
2022/04/14 18:43:15;;;;;;;28.60;14.38;;;;;;;14.24;41.07;99873.91;5022530;28;20044;-93
2022/04/14 18:45:40;;;;;;;25.48;12.98;;;;;;;14.26;40.72;99883.38;5023365;28;20463;-93
2022/04/14 18:48:06;;;;;;;32.80;14.68;;;;;;;14.25;40.77;99878.22;5039167;28;20115;-94
2022/04/14 18:50:32;;;;;;;27.15;11.40;;;;;;;14.10;40.64;99869.09;5022807;28;20021;-94
2022/04/14 18:52:57;;;;;;;34.40;9.68;;;;;;;14.13;40.22;99868.56;5039957;28;20021;-94
2022/04/14 18:55:26;;;;;;;19.73;8.73;;;;;;;14.20;39.04;99880.97;5023156;28;20028;-94
2022/04/14 18:57:52;;;;;;;16.73;8.32;;;;;;;14.13;38.54;99875.84;5023253;28;20021;-94
2022/04/14 19:00:20;;;;;;;22.30;7.22;;;;;;;14.12;38.42;99871.53;5022262;28;20091;-93
2022/04/14 19:02:46;;;;;;;18.02;7.55;;;;;;;14.22;38.87;99892.34;5022524;28;20178;-92
2022/04/14 19:05:12;;;;;;;17.67;8.88;;;;;;;14.08;39.22;99881.31;5021741;28;20463;-92
2022/04/14 19:08:14;;;;;;;32.97;14.75;;;;;;;13.83;41.38;99863.28;5036214;28;20024;-96
2022/04/14 19:10:42;;;;;;;22.05;11.35;;;;;;;13.71;41.63;99858.19;5046159;28;20040;-96
2022/04/14 19:13:08;;;;;;;26.83;10.23;;;;;;;13.92;41.32;99900.34;5033227;28;20025;-96
2022/04/14 19:15:37;;;;;;;17.77;10.73;;;;;;;13.85;41.29;99885.47;5033981;28;20032;-96
2022/04/14 19:18:04;;;;;;;19.85;9.90;;;;;;;13.68;41.70;99858.75;5032691;28;20052;-96
2022/04/14 19:20:29;;;;;;;18.95;9.88;;;;;;;13.68;41.62;99859.56;5048310;28;20052;-96
2022/04/14 19:22:55;;;;;;;21.05;10.48;;;;;;;13.78;41.72;99885.78;5029705;28;20406;-96
2022/04/14 19:25:21;;;;;;;19.05;8.80;;;;;;;13.64;41.39;99871.22;5027086;28;20107;-96
2022/04/14 19:27:47;;;;;;;16.08;7.47;;;;;;;13.75;41.14;99895.25;5047672;28;20475;-96
2022/04/14 19:30:14;;;;;;;17.52;6.80;;;;;;;13.63;40.45;99883.13;5029885;28;20032;-96
2022/04/14 19:32:39;;;;;;;11.07;6.15;;;;;;;13.53;40.06;99868.56;5037065;28;20028;-89
2022/04/14 19:35:09;;;;;;;12.85;6.18;;;;;;;13.60;40.41;99880.97;5038490;28;20055;-90
2022/04/14 19:37:38;;;;;;;18.25;6.80;;;;;;;13.52;40.31;99883.16;5021835;28;20415;-90
2022/04/14 19:40:05;;;;;;;15.27;8.10;;;;;;;13.44;42.69;99896.44;5020825;28;20033;-90
2022/04/14 19:42:30;;;;;;;18.20;8.80;;;;;;;13.20;43.42;99906.97;5021405;28;20036;-90
2022/04/14 19:44:56;;;;;;;15.95;6.70;;;;;;;13.12;43.40;99908.38;5020426;28;20075;-90
2022/04/14 19:47:21;;;;;;;13.52;7.47;;;;;;;13.00;43.25;99905.94;5037786;28;20087;-90
2022/04/14 19:49:46;;;;;;;17.50;9.95;;;;;;;13.00;42.99;99900.53;5020386;28;20017;-90
2022/04/14 19:52:12;;;;;;;14.68;7.80;;;;;;;12.91;43.81;99913.78;5020516;28;20055;-90
2022/04/14 19:54:38;;;;;;;15.95;6.18;;;;;;;12.47;44.83;99895.38;5020321;28;20036;-90
2022/04/14 19:57:03;;;;;;;10.93;6.18;;;;;;;12.45;44.45;99892.16;5020978;28;20510;-90
2022/04/14 19:59:30;;;;;;;16.85;6.95;;;;;;;12.66;44.39;99914.59;5020619;28;20033;-90
2022/04/14 20:01:56;;;;;;;9.75;6.78;;;;;;;12.63;44.32;99901.59;5020423;28;20418;-90
2022/04/14 20:04:21;;;;;;;14.48;6.97;;;;;;;12.64;44.68;99903.22;5020822;28;20029;-90
2022/04/14 20:06:47;;;;;;;12.18;6.40;;;;;;;12.49;45.19;99893.22;5037605;28;20052;-90
2022/04/14 20:09:12;;;;;;;14.13;6.80;;;;;;;12.54;44.87;99900.53;5021087;28;20047;-90
2022/04/14 20:11:38;;;;;;;16.50;7.40;;;;;;;12.56;45.32;99903.75;5020328;28;20174;-90
2022/04/14 20:14:04;;;;;;;14.07;7.22;;;;;;;12.47;45.71;99908.88;5020060;28;20036;-90
2022/04/14 20:16:29;;;;;;;16.05;7.43;;;;;;;12.39;45.48;99906.72;5020623;28;20211;-89
2022/04/14 20:18:55;;;;;;;12.82;6.65;;;;;;;12.39;45.36;99914.81;5020784;28;20041;-89
2022/04/14 20:21:20;;;;;;;17.27;7.20;;;;;;;12.43;45.16;99915.91;5019819;28;20469;-90
2022/04/14 20:23:46;;;;;;;16.88;6.53;;;;;;;12.34;45.68;99918.28;5019778;28;20031;-90
2022/04/14 20:26:11;;;;;;;14.73;6.80;;;;;;;12.28;45.41;99905.84;5020358;28;20388;-89
2022/04/14 20:28:37;;;;;;;27.00;6.97;;;;;;;12.33;45.45;99907.78;5036485;28;20024;-89
2022/04/14 20:31:05;;;;;;;13.18;5.70;;;;;;;12.37;44.81;99913.44;5036425;28;20116;-90
2022/04/14 20:33:33;;;;;;;9.75;5.05;;;;;;;12.38;44.06;99912.38;5020399;28;20024;-89
2022/04/14 20:35:58;;;;;;;16.65;7.78;;;;;;;11.94;47.57;99908.19;5020284;28;20045;-89
2022/04/14 20:38:47;;;;;;;19.88;7.95;;;;;;;11.93;47.15;99917.34;5019790;28;20108;-89
2022/04/14 20:41:15;;;;;;;26.65;7.85;;;;;;;11.70;46.90;99894.28;5015642;28;20037;-90
2022/04/14 20:44:01;;;;;;;18.35;9.50;;;;;;;11.77;47.07;99891.38;5000189;28;20037;-90
2022/04/14 20:46:26;;;;;;;19.83;7.63;;;;;;;11.87;47.17;99910.28;4999446;28;20037;-90
2022/04/14 20:48:52;;;;;;;12.75;6.47;;;;;;;11.70;48.07;99910.47;4999873;28;20088;-90
2022/04/14 20:51:17;;;;;;;15.60;5.60;;;;;;;11.47;48.24;99912.50;4999140;28;20527;-90
2022/04/14 20:53:43;;;;;;;10.55;5.45;;;;;;;11.38;47.49;99903.31;5015769;28;20142;-89
2022/04/14 20:56:08;;;;;;;17.27;5.28;;;;;;;11.36;47.50;99901.94;4998803;28;20045;-90
2022/04/14 20:58:34;;;;;;;15.23;5.85;;;;;;;11.25;47.94;99898.38;4998909;28;20021;-89
2022/04/14 21:00:59;;;;;;;10.63;5.18;;;;;;;11.25;48.28;99903.78;4998901;28;20071;-90
2022/04/14 21:03:25;;;;;;;8.57;4.75;;;;;;;11.20;48.77;99906.41;4998927;28;20494;-89
2022/04/14 21:05:50;;;;;;;9.85;4.93;;;;;;;11.20;48.64;99907.22;4982209;28;20029;-90
2022/04/14 21:08:16;;;;;;;24.85;6.20;;;;;;;11.11;48.82;99906.91;5014657;28;20037;-89
2022/04/14 21:10:41;;;;;;;20.08;5.65;;;;;;;11.11;48.92;99908.78;4998827;28;20045;-89
2022/04/14 21:13:07;;;;;;;12.90;5.32;;;;;;;11.20;48.19;99899.13;5000790;28;20037;-89
2022/04/14 21:15:33;;;;;;;17.02;5.40;;;;;;;11.27;48.26;99905.13;5052598;28;20024;-89
2022/04/14 21:17:58;;;;;;;14.27;6.78;;;;;;;11.11;48.65;99890.72;5019542;28;20025;-95
2022/04/14 21:20:25;;;;;;;18.08;6.10;;;;;;;11.07;49.29;99900.41;5019407;28;20037;-90
2022/04/14 21:22:51;;;;;;;22.52;5.60;;;;;;;11.05;50.30;99904.44;5035921;28;20036;-88
2022/04/14 21:25:16;;;;;;;12.30;5.30;;;;;;;10.95;50.40;99904.34;5019360;28;20025;-89
2022/04/14 21:27:42;;;;;;;10.73;4.78;;;;;;;10.89;50.69;99893.56;5036549;28;20028;-90
2022/04/14 21:30:08;;;;;;;11.65;4.72;;;;;;;10.92;50.83;99914.56;5019379;28;20083;-89
2022/04/14 21:32:34;;;;;;;11.13;4.60;;;;;;;10.83;50.70;99904.53;5018599;28;20499;-89
2022/04/14 21:34:59;;;;;;;12.68;4.55;;;;;;;10.68;51.46;99902.50;5036178;28;20032;-89
2022/04/14 21:37:24;;;;;;;13.32;4.50;;;;;;;10.66;52.19;99916.22;5036203;28;20025;-90
2022/04/14 21:39:50;;;;;;;8.10;4.57;;;;;;;10.58;51.56;99905.13;5035938;28;20036;-89
2022/04/14 21:42:15;;;;;;;19.33;4.50;;;;;;;10.56;52.13;99924.22;5038061;28;20028;-89
2022/04/14 21:44:41;;;;;;;12.35;4.65;;;;;;;10.58;51.59;99919.38;5023530;28;20082;-90
2022/04/14 21:47:08;;;;;;;11.57;4.57;;;;;;;10.59;51.76;99920.22;5023390;28;20025;-90
2022/04/14 21:49:33;;;;;;;12.20;4.82;;;;;;;10.61;51.42;99910.00;5040284;28;20021;-89
2022/04/14 21:51:59;;;;;;;7.68;4.45;;;;;;;10.68;51.12;99908.69;5056400;28;20028;-90
2022/04/14 21:54:24;;;;;;;10.27;5.00;;;;;;;10.66;51.77;99916.22;5040299;28;20024;-88
2022/04/14 21:56:50;;;;;;;10.77;4.03;;;;;;;10.55;51.75;99911.81;5023134;28;20024;-88
2022/04/14 21:59:15;;;;;;;7.90;4.57;;;;;;;10.43;51.90;99922.75;5056431;28;20017;-87
2022/04/14 22:01:44;;;;;;;8.43;4.00;;;;;;;10.42;51.76;99904.16;5039081;28;20021;-89
2022/04/14 22:04:10;;;;;;;10.23;4.57;;;;;;;10.38;51.66;99919.22;5024096;28;20537;-89
2022/04/14 22:06:36;;;;;;;8.43;4.20;;;;;;;10.28;52.00;99912.59;5023362;28;20064;-88
2022/04/14 22:09:01;;;;;;;16.27;4.10;;;;;;;10.23;52.50;99917.09;5039103;28;20029;-89
2022/04/14 22:11:27;;;;;;;9.18;3.58;;;;;;;10.15;52.07;99909.47;5021926;28;20027;-90
2022/04/14 22:13:53;;;;;;;13.73;3.72;;;;;;;10.17;51.90;99913.56;5056342;28;20024;-89
2022/04/14 22:16:19;;;;;;;9.10;3.50;;;;;;;10.11;51.82;99915.38;5022680;28;20013;-89
2022/04/14 22:18:44;;;;;;;9.40;3.92;;;;;;;10.14;51.54;99908.69;5038680;28;20442;-90
2022/04/14 22:21:10;;;;;;;8.10;3.70;;;;;;;10.06;51.71;99903.75;5038320;28;20045;-90
2022/04/14 22:23:36;;;;;;;10.32;4.57;;;;;;;10.07;52.58;99908.06;5022463;28;20086;-89
2022/04/14 22:26:01;;;;;;;6.07;3.80;;;;;;;10.06;53.21;99909.13;5022318;28;20032;-89
2022/04/14 22:28:27;;;;;;;7.55;4.30;;;;;;;10.06;52.96;99915.31;5039055;28;20029;-89
2022/04/14 22:30:52;;;;;;;9.00;4.70;;;;;;;10.04;53.52;99912.09;5039348;28;20025;-90
2022/04/14 22:33:18;;;;;;;9.27;4.50;;;;;;;10.02;53.33;99906.16;5039447;28;20021;-90
2022/04/14 22:35:43;;;;;;;11.52;4.75;;;;;;;10.01;53.18;99912.56;5055959;28;20021;-89
2022/04/14 22:38:09;;;;;;;8.13;4.00;;;;;;;9.94;53.43;99906.59;5038474;28;20040;-89
2022/04/14 22:40:35;;;;;;;7.50;4.53;;;;;;;9.82;54.07;99909.38;5021663;28;20029;-90
2022/04/14 22:43:01;;;;;;;23.30;5.05;;;;;;;9.78;54.05;99894.81;5055155;28;20028;-90
2022/04/14 22:45:27;;;;;;;8.55;4.40;;;;;;;9.73;54.36;99889.38;5038898;28;20021;-90
2022/04/14 22:47:52;;;;;;;9.40;4.90;;;;;;;9.70;54.53;99896.06;5022194;28;20170;-90
2022/04/14 22:50:18;;;;;;;7.53;4.50;;;;;;;9.46;54.96;99881.22;5022078;28;20071;-90
2022/04/14 22:52:44;;;;;;;8.15;4.47;;;;;;;9.50;54.99;99891.25;5039029;28;20096;-90
2022/04/14 22:55:09;;;;;;;13.27;5.38;;;;;;;9.45;55.34;99883.09;5055322;28;20024;-90
2022/04/14 22:57:39;;;;;;;11.48;4.03;;;;;;;9.36;55.40;99881.06;5055046;28;20029;-88
2022/04/14 23:00:06;;;;;;;11.50;4.18;;;;;;;9.36;55.43;99881.06;5039054;28;20213;-89
2022/04/14 23:02:32;;;;;;;7.32;3.78;;;;;;;9.38;55.73;99893.22;5021117;28;20111;-87
2022/04/14 23:04:57;;;;;;;6.60;4.00;;;;;;;9.36;55.65;99891.81;5021270;28;20055;-88
2022/04/14 23:07:23;;;;;;;12.38;4.38;;;;;;;9.29;55.52;99876.69;5020712;28;20032;-88
2022/04/14 23:09:48;;;;;;;15.88;4.28;;;;;;;9.19;56.39;99883.78;5037454;28;20028;-88
2022/04/14 23:12:14;;;;;;;13.48;5.28;;;;;;;9.14;56.34;99883.75;5020498;28;20111;-88
2022/04/14 23:14:40;;;;;;;21.42;5.78;;;;;;;9.01;57.32;99883.00;5037620;28;20021;-88
2022/04/14 23:17:05;;;;;;;15.38;7.70;;;;;;;8.93;57.11;99874.56;5020652;28;20118;-88
2022/04/14 23:19:31;;;;;;;14.88;7.85;;;;;;;8.86;57.38;99878.22;5020603;28;20594;-88
2022/04/14 23:21:56;;;;;;;16.73;7.78;;;;;;;8.85;57.40;99890.00;5020266;28;20021;-88
2022/04/14 23:24:22;;;;;;;26.40;9.52;;;;;;;8.80;57.44;99870.31;5020509;28;20043;-88
2022/04/14 23:26:47;;;;;;;14.65;8.05;;;;;;;8.77;57.70;99876.19;5020604;28;20029;-88
2022/04/14 23:29:13;;;;;;;21.05;8.07;;;;;;;8.73;58.33;99886.59;5036943;28;20025;-88
2022/04/14 23:31:38;;;;;;;14.13;7.00;;;;;;;8.71;58.02;99883.34;5020404;28;20025;-88
2022/04/14 23:34:04;;;;;;;19.90;7.20;;;;;;;8.71;57.93;99877.97;5020478;28;20021;-88
2022/04/14 23:36:29;;;;;;;11.27;7.03;;;;;;;8.63;58.63;99881.03;5019656;28;20025;-88
2022/04/14 23:41:45;;;;;;;16.63;6.65;;;;;;;8.72;57.57;99866.19;5039979;28;20063;-88
2022/04/14 23:44:11;;;;;;;13.57;7.07;;;;;;;8.76;57.64;99891.47;5036667;28;20028;-88
2022/04/14 23:46:37;;;;;;;13.05;7.05;;;;;;;8.63;58.10;99881.03;5019889;28;20465;-89
2022/04/14 23:49:02;;;;;;;13.38;6.40;;;;;;;8.61;58.29;99867.88;5019945;28;20028;-88
2022/04/14 23:51:28;;;;;;;14.38;7.35;;;;;;;8.54;58.62;99872.59;5037224;28;20021;-87
2022/04/14 23:53:53;;;;;;;14.95;7.13;;;;;;;8.53;58.49;99873.66;5019957;28;20355;-87
2022/04/14 23:56:19;;;;;;;15.45;6.88;;;;;;;8.49;58.90;99877.88;5020540;28;20024;-87
2022/04/14 23:58:44;;;;;;;11.15;5.78;;;;;;;8.47;58.96;99874.63;5036871;28;20028;-87
